< Typhoon 198822 1988 Season Typhoon 198824 >
Typhoon 198823 (MAMIE)
General InformationTrack Information on Google MapsDetailed Wind InformationList of All Images || Disaster Info.ResourceGoogle EarthGE AnimationAtom FeedGeoJSON
Detalied Best Track (Time Zone = UTC)
Year Month Day Hour Lat. Long. Pressure (hPa) Wind (kt) Class Image Chart
1988 9 19 00 17.0 115.0 1008 0 2 Image Chart
1988 9 19 06 16.8 114.2 1004 0 2 Image Chart
1988 9 19 12 16.5 113.5 1004 0 2 Image Chart
1988 9 19 18 16.0 113.0 1004 0 2 Image Chart
1988 9 20 00 15.5 112.5 1004 0 2 Image Chart
1988 9 20 06 15.1 112.2 1002 0 2 Image Chart
1988 9 20 12 14.7 112.1 1002 0 2 Image Chart
1988 9 20 18 14.4 112.0 1000 0 2 Image Chart
1988 9 21 00 14.0 112.0 1000 0 2 Image Chart
1988 9 21 06 14.1 112.3 1000 0 2 Image Chart
1988 9 21 12 14.6 112.5 998 0 2 Image Chart
1988 9 21 18 15.4 112.5 996 45 3 Image Chart
1988 9 22 00 15.7 112.5 992 45 3 Image Chart
1988 9 22 06 16.6 112.7 990 45 3 Image Chart
1988 9 22 12 17.6 113.1 990 45 3 Image Chart
1988 9 22 18 18.7 113.3 990 45 3 Image Chart
1988 9 23 00 19.6 113.4 990 45 3 Image Chart
1988 9 23 06 20.6 114.6 992 45 3 Image Chart
1988 9 23 12 22.0 115.2 996 40 3 Image Chart
1988 9 23 18 22.5 115.5 1000 0 2 Image Chart
1988 9 24 00 23.0 115.5 1006 0 2 Image Chart
1988 9 24 06 23.5 116.0 1006 0 2 Image Chart
Japan Meteorological Agency Best Track Data | Correction Date : 1992-10-21
< Typhoon 198822 1988 Season Typhoon 198824 >

Help